Time;durP1;ratioP1;P1;durP2;ratioP2;P2;SDS_P1;SDS_P2;PMS_P1;PMS_P2;Temp;Humidity;BMP_temperature;BMP_pressure;BME280_temperature;BME280_humidity;BME280_pressure;Samples;Min_cycle;Max_cycle;Signal;HPM_P1;HPM_P2
2022/03/03 00:01:04;;;;;;;;;79.50;66.75;;;;;9.80;56.08;101633.44;2451813;27;45414;-87
2022/03/03 00:02:14;;;;;;;;;77.00;65.00;;;;;9.76;56.21;101622.13;2451328;28;44670;-88
2022/03/03 00:03:24;;;;;;;;;79.00;66.00;;;;;9.78;55.85;101632.59;2448400;28;46670;-88
2022/03/03 00:04:35;;;;;;;;;80.75;67.00;;;;;9.76;56.26;101632.63;2451037;27;44776;-88
2022/03/03 00:05:46;;;;;;;;;81.00;65.25;;;;;9.74;55.79;101626.53;2451719;27;45264;-87
2022/03/03 00:06:56;;;;;;;;;79.75;66.75;;;;;9.75;56.27;101622.16;2452222;27;45244;-89
2022/03/03 00:08:06;;;;;;;;;76.25;66.00;;;;;9.73;56.13;101627.41;2451788;27;45394;-89
2022/03/03 00:09:17;;;;;;;;;76.75;64.50;;;;;9.73;56.50;101632.66;2451978;28;45201;-89
2022/03/03 00:10:27;;;;;;;;;81.25;68.50;;;;;9.71;56.72;101628.31;2458831;27;47985;-89
2022/03/03 00:11:38;;;;;;;;;78.75;69.00;;;;;9.71;56.31;101628.31;2451770;28;45403;-89
2022/03/03 00:12:48;;;;;;;;;80.25;69.75;;;;;9.70;56.52;101618.72;2450064;28;47179;-89
2022/03/03 00:13:59;;;;;;;;;78.25;64.50;;;;;9.70;56.76;101629.22;2443051;28;44920;-87
2022/03/03 00:15:10;;;;;;;;;79.75;69.50;;;;;9.66;57.03;101621.38;2451155;28;45460;-86
2022/03/03 00:16:20;;;;;;;;;77.00;60.00;;;;;9.65;56.94;101621.41;2451986;27;45337;-86
2022/03/03 00:17:30;;;;;;;;;76.00;64.00;;;;;9.65;56.93;101616.16;2451735;27;45337;-86
2022/03/03 00:18:41;;;;;;;;;82.00;68.25;;;;;9.65;56.75;101610.91;2451241;27;45570;-86
2022/03/03 00:19:51;;;;;;;;;84.00;70.25;;;;;9.64;56.90;101611.78;2451733;27;45528;-87
2022/03/03 00:21:03;;;;;;;;;81.00;67.75;;;;;9.64;57.02;101615.28;2451891;27;45239;-82
2022/03/03 00:22:13;;;;;;;;;84.00;69.25;;;;;9.65;57.00;101614.41;2451669;27;45646;-83
2022/03/03 00:23:23;;;;;;;;;81.50;67.75;;;;;9.62;57.12;101619.72;2451420;27;45468;-84
2022/03/03 00:24:34;;;;;;;;;79.75;66.75;;;;;9.63;56.96;101610.09;2451208;27;45413;-84
2022/03/03 00:25:44;;;;;;;;;81.25;67.00;;;;;9.63;57.15;101615.34;2451668;27;45211;-84
2022/03/03 00:26:55;;;;;;;;;82.00;69.75;;;;;9.62;57.33;101613.59;2450890;28;47448;-84
2022/03/03 00:28:05;;;;;;;;;75.25;63.75;;;;;9.63;57.15;101615.34;2451247;28;45279;-84
2022/03/03 00:29:16;;;;;;;;;76.25;62.00;;;;;9.62;57.32;101610.97;2451645;27;45610;-84
2022/03/03 00:30:27;;;;;;;;;74.50;59.50;;;;;9.61;57.44;101614.47;2451953;27;45135;-84
2022/03/03 00:31:37;;;;;;;;;79.25;67.00;;;;;9.60;57.54;101604.88;2451282;27;45307;-84
2022/03/03 00:32:48;;;;;;;;;79.75;68.25;;;;;9.58;57.28;101612.75;2451824;27;45153;-84
2022/03/03 00:33:58;;;;;;;;;77.75;65.50;;;;;9.60;57.43;101621.50;2450973;27;45311;-84
2022/03/03 00:35:10;;;;;;;;;80.00;70.00;;;;;9.62;57.47;101629.34;2451472;27;44773;-84
2022/03/03 00:36:21;;;;;;;;;75.25;61.00;;;;;9.61;58.08;101622.34;2458892;27;45305;-84
2022/03/03 00:37:31;;;;;;;;;79.00;68.00;;;;;9.60;57.66;101615.38;2455882;27;45352;-84
2022/03/03 00:38:41;;;;;;;;;79.50;63.75;;;;;9.61;57.72;101617.09;2451302;27;45353;-84
2022/03/03 00:39:52;;;;;;;;;85.50;71.00;;;;;9.59;57.68;101614.50;2451796;28;45258;-84
2022/03/03 00:41:02;;;;;;;;;81.00;62.75;;;;;9.62;57.98;101614.47;2451569;27;46240;-84
2022/03/03 00:42:13;;;;;;;;;80.75;68.50;;;;;9.64;57.91;101623.16;2451743;27;45433;-84
2022/03/03 00:43:23;;;;;;;;;80.00;70.00;;;;;9.63;58.28;101615.34;2451513;27;46123;-84
2022/03/03 00:44:33;;;;;;;;;80.50;69.50;;;;;9.64;58.04;101622.28;2451438;27;44597;-84
2022/03/03 00:45:44;;;;;;;;;81.00;65.75;;;;;9.64;58.02;101622.28;2451197;27;45552;-84
2022/03/03 00:46:54;;;;;;;;;78.50;68.00;;;;;9.65;58.07;101619.66;2451876;27;45218;-84
2022/03/03 00:48:05;;;;;;;;;70.50;54.00;;;;;9.64;58.28;101617.03;2451521;27;45354;-84
2022/03/03 00:49:15;;;;;;;;;79.75;66.50;;;;;9.64;58.15;101620.53;2450819;27;45768;-84
2022/03/03 00:50:26;;;;;;;;;79.00;66.50;;;;;9.65;58.09;101619.66;2451436;27;45408;-84
2022/03/03 00:51:37;;;;;;;;;77.50;65.75;;;;;9.66;58.12;101621.38;2450969;28;45149;-86
2022/03/03 00:52:47;;;;;;;;;80.00;66.00;;;;;9.66;58.14;101621.38;2450888;28;45332;-87
2022/03/03 00:53:58;;;;;;;;;79.75;68.50;;;;;9.68;57.98;101616.97;2451223;27;45414;-86
2022/03/03 00:55:09;;;;;;;;;77.75;65.50;;;;;9.68;57.85;101619.59;2451244;27;45235;-86
2022/03/03 00:56:19;;;;;;;;;77.00;65.75;;;;;9.68;57.77;101618.72;2450793;28;45476;-87
2022/03/03 00:57:29;;;;;;;;;77.75;66.75;;;;;9.68;57.79;101614.34;2455326;27;45563;-87
2022/03/03 00:58:40;;;;;;;;;80.75;70.50;;;;;9.70;58.01;101613.47;2458045;27;45328;-86
2022/03/03 00:59:50;;;;;;;;;77.00;65.00;;;;;9.68;58.20;101611.72;2451411;27;46342;-87
2022/03/03 01:01:01;;;;;;;;;77.25;65.75;;;;;9.69;57.89;101615.22;2450729;28;44687;-87
2022/03/03 01:02:11;;;;;;;;;83.25;70.00;;;;;9.71;58.15;101615.19;2450881;28;45538;-87
2022/03/03 01:03:21;;;;;;;;;77.50;68.00;;;;;9.72;58.30;101625.69;2451281;27;45211;-86
2022/03/03 01:04:32;;;;;;;;;79.50;68.50;;;;;9.70;58.31;101616.97;2452099;27;48238;-86
2022/03/03 01:05:43;;;;;;;;;77.00;66.75;;;;;9.68;58.08;101619.59;2452407;27;45278;-86
2022/03/03 01:06:53;;;;;;;;;79.00;63.75;;;;;9.71;58.41;101621.31;2450555;28;47413;-87
2022/03/03 01:08:08;;;;;;;;;78.25;66.50;;;;;9.70;58.42;101623.97;2451212;28;45426;-86
2022/03/03 01:09:18;;;;;;;;;77.75;65.50;;;;;9.67;58.39;101617.88;2451138;27;46475;-86
2022/03/03 01:10:29;;;;;;;;;77.25;67.75;;;;;9.70;58.50;101626.59;2450779;28;45022;-87
2022/03/03 01:11:39;;;;;;;;;80.75;67.25;;;;;9.68;57.97;101622.22;2443515;28;46869;-87
2022/03/03 01:12:49;;;;;;;;;77.75;67.25;;;;;9.67;58.33;101624.88;2450952;28;45333;-86
2022/03/03 01:14:00;;;;;;;;;86.00;71.75;;;;;9.66;58.29;101620.50;2454287;27;47152;-86
2022/03/03 01:15:11;;;;;;;;;79.00;64.25;;;;;9.67;58.42;101624.88;2450998;28;44688;-87
2022/03/03 01:16:21;;;;;;;;;77.75;60.75;;;;;9.67;58.46;101622.25;2450562;28;47729;-85
2022/03/03 01:17:32;;;;;;;;;79.25;67.75;;;;;9.68;58.61;101630.09;2448332;28;44867;-88
2022/03/03 01:18:42;;;;;;;;;78.50;65.25;;;;;9.67;58.47;101623.13;2442899;28;46601;-89
2022/03/03 01:19:53;;;;;;;;;79.25;66.75;;;;;9.67;58.49;101623.13;2451501;27;45302;-90
2022/03/03 01:21:03;;;;;;;;;78.25;63.25;;;;;9.67;58.63;101624.88;2451237;27;45442;-88
2022/03/03 01:22:15;;;;;;;;;81.00;65.75;;;;;9.67;58.54;101623.13;2450621;28;45394;-86
2022/03/03 01:23:26;;;;;;;;;78.50;65.50;;;;;9.70;58.25;101626.59;2446416;27;47491;-88
2022/03/03 01:24:37;;;;;;;;;75.50;64.25;;;;;9.70;58.71;101624.84;2452227;27;45200;-87
2022/03/03 01:25:47;;;;;;;;;80.50;66.75;;;;;9.66;58.28;101621.38;2450967;28;46241;-88
2022/03/03 01:26:58;;;;;;;;;76.00;64.75;;;;;9.67;58.77;101620.50;2451588;27;45291;-88
2022/03/03 01:28:08;;;;;;;;;77.75;60.00;;;;;9.67;58.56;101623.13;2451415;28;45279;-87
2022/03/03 01:29:18;;;;;;;;;80.75;65.75;;;;;9.68;58.78;101622.22;2450587;27;45168;-88
2022/03/03 01:30:29;;;;;;;;;77.00;63.50;;;;;9.67;58.68;101615.25;2451333;27;45244;-88
2022/03/03 01:31:39;;;;;;;;;78.00;68.00;;;;;9.70;58.86;101622.22;2451380;27;45333;-87
2022/03/03 01:32:50;;;;;;;;;77.25;63.00;;;;;9.68;58.52;101609.09;2451495;28;45376;-87
2022/03/03 01:34:00;;;;;;;;;79.75;67.25;;;;;9.66;58.92;101605.63;2450431;27;45582;-88
2022/03/03 01:35:11;;;;;;;;;75.50;63.00;;;;;9.68;58.83;101606.47;2450930;27;45969;-88
2022/03/03 01:36:21;;;;;;;;;78.50;68.75;;;;;9.68;58.64;101609.09;2458904;27;45294;-88
2022/03/03 01:37:31;;;;;;;;;81.00;65.25;;;;;9.68;58.72;101609.09;2455390;27;45502;-89
2022/03/03 01:38:42;;;;;;;;;76.50;63.00;;;;;9.66;59.08;101603.00;2451402;27;45232;-87
2022/03/03 01:39:52;;;;;;;;;78.00;66.00;;;;;9.67;58.78;101602.13;2451275;27;45414;-84
2022/03/03 01:41:03;;;;;;;;;77.75;66.50;;;;;9.68;59.40;101597.72;2451264;27;44754;-83
2022/03/03 01:42:15;;;;;;;;;77.50;61.75;;;;;9.70;59.01;101601.22;2451151;27;46383;-83
2022/03/03 01:43:25;;;;;;;;;75.25;63.00;;;;;9.68;58.94;101598.59;2450926;27;45218;-83
2022/03/03 01:44:41;;;;;;;;;75.25;63.75;;;;;9.71;58.69;101602.94;2449934;28;48370;-83
2022/03/03 01:45:51;;;;;;;;;77.00;63.50;;;;;9.71;58.96;101602.06;2450877;28;44663;-83
2022/03/03 01:47:02;;;;;;;;;77.50;64.00;;;;;9.73;59.11;101600.31;2451163;27;45482;-83
2022/03/03 01:48:12;;;;;;;;;79.25;68.50;;;;;9.72;58.57;101599.44;2451122;27;45424;-82
2022/03/03 01:49:24;;;;;;;;;80.25;69.75;;;;;9.77;59.41;101601.97;2444031;27;46445;-81
2022/03/03 01:50:35;;;;;;;;;78.00;64.25;;;;;9.76;58.90;101594.97;2444316;28;45200;-81
2022/03/03 01:51:45;;;;;;;;;79.00;67.00;;;;;9.77;58.74;101601.97;2451142;27;45226;-81
2022/03/03 01:52:56;;;;;;;;;77.00;66.75;;;;;9.78;59.13;101599.31;2451195;27;44741;-81
2022/03/03 01:54:06;;;;;;;;;79.50;65.00;;;;;9.78;59.10;101594.06;2450407;27;45278;-81
2022/03/03 01:55:18;;;;;;;;;81.25;69.00;;;;;9.81;59.01;101594.91;2450911;27;45144;-81
2022/03/03 01:56:28;;;;;;;;;75.00;63.25;;;;;9.82;59.14;101594.91;2451158;27;46794;-81
2022/03/03 01:57:40;;;;;;;;;78.00;66.75;;;;;9.84;59.47;101592.25;2450370;28;44578;-81
2022/03/03 01:58:50;;;;;;;;;77.50;63.50;;;;;9.83;59.14;101594.00;2450463;28;45423;-81
2022/03/03 02:00:01;;;;;;;;;78.50;65.75;;;;;9.86;59.27;101593.09;2451275;27;45349;-81
2022/03/03 02:01:14;;;;;;;;;77.25;64.25;;;;;9.88;59.48;101592.16;2450940;28;46440;-81
2022/03/03 02:02:27;;;;;;;;;74.25;63.50;;;;;9.92;59.00;101594.75;2450736;27;45474;-81
2022/03/03 02:03:37;;;;;;;;;83.25;67.75;;;;;9.92;58.92;101586.88;2450310;28;46609;-81
2022/03/03 02:04:48;;;;;;;;;77.25;67.25;;;;;9.95;58.92;101586.81;2451039;27;44698;-81
2022/03/03 02:05:58;;;;;;;;;77.75;66.75;;;;;9.95;59.17;101579.78;2450907;27;46072;-81
2022/03/03 02:07:10;;;;;;;;;79.25;68.00;;;;;9.97;59.06;101588.53;2450808;27;45206;-81
2022/03/03 02:08:22;;;;;;;;;79.00;66.75;;;;;10.00;58.89;101582.38;2451055;27;45399;-81
2022/03/03 02:09:34;;;;;;;;;80.50;68.00;;;;;10.03;58.86;101584.91;2450764;27;45349;-81
2022/03/03 02:10:44;;;;;;;;;75.00;63.50;;;;;10.04;58.79;101591.91;2450665;28;45581;-89
2022/03/03 02:11:55;;;;;;;;;75.25;61.75;;;;;10.05;58.74;101588.38;2450256;28;45231;-86
2022/03/03 02:13:06;;;;;;;;;78.00;65.75;;;;;10.09;58.89;101586.59;2449919;28;46449;-85
2022/03/03 02:14:18;;;;;;;;;79.75;66.00;;;;;10.08;59.04;101580.47;2450792;27;44755;-84
2022/03/03 02:15:28;;;;;;;;;77.25;67.75;;;;;10.10;59.07;101583.06;2449920;27;46016;-85
2022/03/03 02:16:39;;;;;;;;;79.75;69.75;;;;;10.15;59.13;101591.72;2451039;27;44630;-85
2022/03/03 02:17:50;;;;;;;;;73.50;64.00;;;;;10.18;59.03;101585.53;2450876;27;46297;-85
2022/03/03 02:19:00;;;;;;;;;78.25;64.75;;;;;10.17;59.42;101586.47;2450498;27;44829;-85
2022/03/03 02:20:22;;;;;;;;;77.50;67.00;;;;;10.18;58.70;101581.16;2450848;27;46336;-85
2022/03/03 02:21:32;;;;;;;;;77.25;63.50;;;;;10.21;59.04;101589.00;2440565;28;45251;-85
2022/03/03 02:22:42;;;;;;;;;76.75;65.00;;;;;10.24;58.80;101588.97;2447935;28;45419;-85
2022/03/03 02:23:53;;;;;;;;;74.25;62.75;;;;;10.25;59.16;101581.91;2449880;28;45409;-84
2022/03/03 02:25:03;;;;;;;;;83.25;72.00;;;;;10.24;59.06;101581.06;2450116;28;45432;-85
2022/03/03 02:26:24;;;;;;;;;80.00;67.00;;;;;10.27;59.11;101580.16;2440556;28;45294;-85
2022/03/03 02:27:34;;;;;;;;;76.25;63.50;;;;;10.30;59.31;101585.31;2447855;28;45673;-85
2022/03/03 02:28:47;;;;;;;;;76.75;63.00;;;;;10.31;58.94;101588.81;2450605;28;45270;-84
2022/03/03 02:29:58;;;;;;;;;78.00;70.00;;;;;10.31;59.12;101581.81;2450891;27;46032;-84
2022/03/03 02:31:08;;;;;;;;;78.25;67.25;;;;;10.31;59.15;101581.81;2450922;27;45155;-84
2022/03/03 02:32:18;;;;;;;;;78.00;67.00;;;;;10.34;59.08;101586.16;2450714;27;45262;-84
2022/03/03 02:33:29;;;;;;;;;74.75;61.50;;;;;10.34;59.37;101581.78;2450534;27;45304;-84
2022/03/03 02:34:46;;;;;;;;;77.75;67.75;;;;;10.35;59.39;101580.84;2450323;27;45575;-85
2022/03/03 02:36:14;;;;;;;;;73.50;59.00;;;;;10.40;58.87;101587.78;2454510;27;45339;-87
2022/03/03 02:37:31;;;;;;;;;79.00;66.25;;;;;10.38;59.16;101573.81;2455609;27;45677;-87
2022/03/03 02:38:41;;;;;;;;;75.00;64.25;;;;;10.41;58.70;101573.75;2450698;27;45318;-87
2022/03/03 02:39:52;;;;;;;;;77.50;69.00;;;;;10.40;58.65;101580.78;2450758;27;45409;-87
2022/03/03 02:41:02;;;;;;;;;77.00;66.75;;;;;10.43;58.82;101579.84;2449995;28;45401;-82
2022/03/03 02:42:13;;;;;;;;;80.00;66.75;;;;;10.44;58.73;101582.47;2450150;28;46502;-85
2022/03/03 02:43:23;;;;;;;;;80.00;64.25;;;;;10.46;58.93;101577.16;2450722;27;45321;-85
2022/03/03 02:44:34;;;;;;;;;75.25;65.00;;;;;10.46;58.47;101570.16;2449849;28;47146;-85
2022/03/03 02:45:44;;;;;;;;;75.00;60.50;;;;;10.46;58.54;101575.41;2442997;28;45167;-86
2022/03/03 02:46:54;;;;;;;;;76.25;65.00;;;;;10.47;58.79;101571.00;2450212;28;45239;-85
2022/03/03 02:48:05;;;;;;;;;80.00;68.75;;;;;10.50;58.82;101570.06;2450830;27;45155;-83
2022/03/03 02:49:15;;;;;;;;;75.50;67.00;;;;;10.52;58.71;101568.34;2449666;27;45489;-82
2022/03/03 02:50:25;;;;;;;;;75.75;66.00;;;;;10.53;58.73;101568.31;2450033;27;45458;-82
2022/03/03 02:51:37;;;;;;;;;72.00;63.25;;;;;10.51;58.89;101567.47;2450300;27;46250;-82
2022/03/03 02:52:48;;;;;;;;;82.25;70.00;;;;;10.53;58.82;101564.81;2450840;27;45239;-82
2022/03/03 02:53:59;;;;;;;;;82.00;74.50;;;;;10.53;59.14;101560.41;2450314;27;45433;-82
2022/03/03 02:55:09;;;;;;;;;75.25;63.25;;;;;10.54;59.13;101562.13;2450913;27;44625;-83
2022/03/03 02:56:20;;;;;;;;;78.25;66.25;;;;;10.54;58.98;101562.13;2450555;27;45388;-83
2022/03/03 02:58:59;;;;;;;;;76.50;66.25;;;;;10.58;58.93;101563.81;2450322;28;45727;-83
2022/03/03 03:00:10;;;;;;;;;75.50;64.75;;;;;10.58;58.76;101562.94;2450844;27;44675;-83
2022/03/03 03:01:20;;;;;;;;;76.25;65.25;;;;;10.56;58.76;101557.75;2450005;27;46498;-84
2022/03/03 03:02:30;;;;;;;;;78.00;66.50;;;;;10.58;58.85;101557.69;2450649;28;44829;-83
2022/03/03 03:03:41;;;;;;;;;75.75;62.50;;;;;10.57;58.45;101551.56;2449980;27;45472;-83
2022/03/03 03:04:51;;;;;;;;;75.50;63.00;;;;;10.59;58.41;101554.19;2450715;27;44856;-82
2022/03/03 03:06:02;;;;;;;;;76.75;64.50;;;;;10.60;58.84;101548.00;2450487;27;45412;-83
2022/03/03 03:07:12;;;;;;;;;76.50;65.50;;;;;10.61;58.68;101551.50;2450766;27;44787;-83
2022/03/03 03:08:23;;;;;;;;;78.75;65.00;;;;;10.62;58.92;101548.00;2450629;27;45519;-83
2022/03/03 03:09:33;;;;;;;;;75.00;64.00;;;;;10.61;58.68;101547.13;2451694;27;44748;-83
2022/03/03 03:10:44;;;;;;;;;77.75;63.50;;;;;10.62;58.63;101550.63;2449810;27;45382;-82
2022/03/03 03:11:54;;;;;;;;;75.25;64.00;;;;;10.64;58.78;101548.81;2450720;28;45252;-82
2022/03/03 03:13:06;;;;;;;;;77.75;61.50;;;;;10.64;58.56;101548.81;2450400;27;46460;-82
2022/03/03 03:14:16;;;;;;;;;73.00;59.50;;;;;10.65;58.81;101548.78;2450633;28;45243;-82
2022/03/03 03:15:27;;;;;;;;;73.75;57.75;;;;;10.65;59.25;101540.91;2450452;27;45443;-82
2022/03/03 03:16:37;;;;;;;;;74.00;60.50;;;;;10.67;58.66;101541.72;2450765;27;45220;-82
2022/03/03 03:17:48;;;;;;;;;75.50;61.75;;;;;10.67;58.70;101535.59;2450119;27;45490;-82
2022/03/03 03:18:58;;;;;;;;;76.25;61.00;;;;;10.65;58.72;101537.41;2450347;27;45161;-82
2022/03/03 03:20:09;;;;;;;;;75.75;63.25;;;;;10.67;58.64;101532.97;2450053;27;46463;-82
2022/03/03 03:21:19;;;;;;;;;73.75;58.50;;;;;10.67;58.90;101528.59;2450324;27;45455;-82
2022/03/03 03:22:30;;;;;;;;;77.25;65.25;;;;;10.68;58.51;101529.47;2451527;28;45491;-82
2022/03/03 03:23:40;;;;;;;;;76.00;63.00;;;;;10.68;58.40;101532.97;2452341;27;45347;-82
2022/03/03 03:24:50;;;;;;;;;74.75;61.75;;;;;10.68;58.43;101530.31;2452266;27;45358;-82
2022/03/03 03:26:01;;;;;;;;;72.00;59.00;;;;;10.68;58.49;101526.81;2452242;27;45423;-83
2022/03/03 03:27:11;;;;;;;;;73.00;58.25;;;;;10.69;59.15;101528.56;2451422;28;46778;-83
2022/03/03 03:28:22;;;;;;;;;73.75;60.50;;;;;10.68;58.66;101526.81;2452501;27;45396;-83
2022/03/03 03:29:32;;;;;;;;;73.75;60.25;;;;;10.69;58.69;101524.16;2452023;28;45373;-83
2022/03/03 03:30:43;;;;;;;;;74.00;60.75;;;;;10.70;58.85;101527.66;2452339;27;45523;-83
2022/03/03 03:31:53;;;;;;;;;72.75;61.75;;;;;10.71;58.77;101528.53;2452282;27;45384;-83
2022/03/03 03:33:04;;;;;;;;;75.00;60.00;;;;;10.71;58.98;101524.16;2452070;27;45460;-83
2022/03/03 03:34:14;;;;;;;;;77.00;65.00;;;;;10.72;58.73;101517.97;2451826;27;46305;-83
2022/03/03 03:35:25;;;;;;;;;76.50;62.25;;;;;10.75;58.56;101520.53;2451994;27;45337;-83
2022/03/03 03:36:35;;;;;;;;;73.00;60.25;;;;;10.73;58.76;101511.81;2461564;27;46301;-83
2022/03/03 03:37:46;;;;;;;;;75.25;65.00;;;;;10.73;58.86;101514.44;2453707;27;45144;-83
2022/03/03 03:38:57;;;;;;;;;74.75;61.00;;;;;10.75;58.76;101515.28;2452386;27;45250;-83
2022/03/03 03:40:09;;;;;;;;;76.00;62.00;;;;;10.75;58.76;101511.78;2451865;27;45144;-83
2022/03/03 03:41:19;;;;;;;;;74.00;58.50;;;;;10.78;58.53;101515.22;2452137;27;45472;-83
2022/03/03 03:42:29;;;;;;;;;74.00;61.50;;;;;10.77;58.96;101516.09;2452254;27;45271;-83
2022/03/03 03:43:40;;;;;;;;;73.00;60.50;;;;;10.76;58.75;101508.25;2451897;27;46508;-83
2022/03/03 03:44:50;;;;;;;;;70.50;56.25;;;;;10.77;58.95;101509.97;2451975;27;45152;-83
2022/03/03 03:46:01;;;;;;;;;73.25;60.25;;;;;10.79;58.61;101508.22;2451930;27;46250;-83
2022/03/03 03:47:12;;;;;;;;;74.25;59.75;;;;;10.76;59.01;101501.25;2452175;27;45199;-83
2022/03/03 03:48:23;;;;;;;;;75.50;60.50;;;;;10.76;59.06;101509.13;2451868;27;46596;-83
2022/03/03 03:49:33;;;;;;;;;71.00;57.50;;;;;10.79;58.80;101509.06;2451983;27;45261;-88
2022/03/03 03:50:44;;;;;;;;;75.50;63.00;;;;;10.79;58.99;101509.06;2451578;27;45424;-86
2022/03/03 03:51:54;;;;;;;;;72.00;59.25;;;;;10.79;59.06;101511.69;2461237;27;45327;-86
2022/03/03 03:53:05;;;;;;;;;74.50;62.25;;;;;10.79;58.84;101514.31;2458707;27;46276;-86
2022/03/03 03:54:15;;;;;;;;;71.25;57.00;;;;;10.82;59.09;101512.50;2450774;28;45277;-87
2022/03/03 03:55:26;;;;;;;;;75.75;61.50;;;;;10.82;58.92;101513.38;2451379;28;45267;-86
2022/03/03 03:56:36;;;;;;;;;76.75;64.50;;;;;10.80;59.13;101508.16;2452119;28;45225;-86
2022/03/03 03:57:46;;;;;;;;;72.25;59.50;;;;;10.80;59.16;101509.91;2451877;27;45362;-84
2022/03/03 03:58:57;;;;;;;;;76.00;63.75;;;;;10.80;59.02;101504.66;2452097;27;44759;-84
2022/03/03 04:00:12;;;;;;;;;71.75;57.00;;;;;10.81;58.99;101501.16;2451503;27;45623;-84
2022/03/03 04:01:22;;;;;;;;;75.25;61.75;;;;;10.83;59.01;101504.59;2442507;28;45361;-84
2022/03/03 04:02:33;;;;;;;;;75.00;62.50;;;;;10.84;59.11;101505.47;2448393;28;45268;-87
2022/03/03 04:03:43;;;;;;;;;72.00;59.00;;;;;10.84;59.13;101502.84;2450987;27;45468;-83
2022/03/03 04:04:54;;;;;;;;;75.50;62.00;;;;;10.82;59.04;101497.59;2451800;27;46395;-83
2022/03/03 04:06:05;;;;;;;;;76.00;63.00;;;;;10.84;59.47;101500.22;2451244;28;45293;-83
2022/03/03 04:07:16;;;;;;;;;72.75;57.50;;;;;10.84;59.16;101498.44;2451360;28;45258;-83
2022/03/03 04:08:26;;;;;;;;;73.25;61.75;;;;;10.86;59.39;101501.03;2450963;28;45773;-83
2022/03/03 04:09:36;;;;;;;;;70.25;56.75;;;;;10.84;59.18;101493.16;2451310;28;46159;-86
2022/03/03 04:10:47;;;;;;;;;74.75;60.50;;;;;10.86;59.43;101493.16;2451838;27;45348;-86
2022/03/03 04:11:58;;;;;;;;;73.75;59.75;;;;;10.85;58.99;101501.94;2451836;27;45280;-83
2022/03/03 04:13:08;;;;;;;;;75.25;61.00;;;;;10.87;59.06;101497.50;2451863;27;44753;-83
2022/03/03 04:14:18;;;;;;;;;72.75;58.50;;;;;10.86;59.03;101496.66;2451750;27;45346;-83
2022/03/03 04:15:29;;;;;;;;;70.00;55.75;;;;;10.88;59.39;101491.34;2451828;27;45264;-83
2022/03/03 04:16:39;;;;;;;;;72.50;57.00;;;;;10.88;59.26;101491.34;2451764;27;45252;-83
2022/03/03 04:17:49;;;;;;;;;77.75;65.75;;;;;10.87;59.32;101490.47;2451862;28;45346;-83
2022/03/03 04:19:00;;;;;;;;;74.75;58.75;;;;;10.90;59.14;101489.53;2451546;27;45486;-83
2022/03/03 04:20:11;;;;;;;;;75.25;58.50;;;;;10.91;59.38;101483.41;2451923;27;45314;-83
2022/03/03 04:21:21;;;;;;;;;68.50;54.25;;;;;10.92;59.53;101482.47;2441973;28;46323;-83
2022/03/03 04:22:32;;;;;;;;;71.25;54.50;;;;;10.90;59.29;101479.03;2448190;28;45432;-83
2022/03/03 04:23:43;;;;;;;;;71.25;55.25;;;;;10.92;59.73;101482.47;2451314;27;46177;-83
2022/03/03 04:24:53;;;;;;;;;71.75;58.25;;;;;10.91;59.72;101478.97;2451301;27;45460;-86
2022/03/03 04:26:03;;;;;;;;;71.25;55.75;;;;;10.93;59.47;101478.09;2451683;27;45577;-86
2022/03/03 04:27:14;;;;;;;;;67.50;53.25;;;;;10.93;59.35;101478.09;2451864;27;45410;-86
2022/03/03 04:28:24;;;;;;;;;69.00;55.00;;;;;10.94;59.61;101480.69;2451835;27;45262;-86
2022/03/03 04:29:35;;;;;;;;;68.75;54.75;;;;;10.94;59.69;101475.41;2451861;27;45731;-86
2022/03/03 04:30:45;;;;;;;;;62.75;50.00;;;;;10.96;59.77;101478.91;2451324;27;46337;-86
2022/03/03 04:31:57;;;;;;;;;70.50;54.75;;;;;10.95;59.53;101471.91;2451843;27;45168;-86
2022/03/03 04:33:08;;;;;;;;;68.50;52.25;;;;;10.95;59.19;101479.78;2451031;27;46130;-86
2022/03/03 04:34:19;;;;;;;;;68.00;55.50;;;;;10.96;59.55;101468.38;2451603;27;45386;-87
2022/03/03 04:35:29;;;;;;;;;67.75;53.25;;;;;10.98;59.29;101470.97;2451161;27;45457;-87
2022/03/03 04:36:40;;;;;;;;;69.75;56.00;;;;;10.97;59.80;101464.84;2461793;27;45424;-87
2022/03/03 04:37:50;;;;;;;;;70.00;53.00;;;;;10.97;59.81;101463.97;2452836;27;46357;-86
2022/03/03 04:39:01;;;;;;;;;61.75;49.50;;;;;10.96;59.71;101457.84;2451747;27;45235;-86
2022/03/03 04:40:11;;;;;;;;;67.25;53.00;;;;;10.99;60.01;101459.53;2451570;27;46449;-86
2022/03/03 04:41:22;;;;;;;;;64.75;51.00;;;;;10.99;59.83;101456.91;2451025;28;45444;-85
2022/03/03 04:42:32;;;;;;;;;67.25;53.00;;;;;10.98;59.58;101466.56;2450743;28;45654;-85
2022/03/03 04:43:43;;;;;;;;;69.00;52.25;;;;;10.99;59.88;101463.03;2450544;28;46069;-88
2022/03/03 04:44:53;;;;;;;;;70.00;52.50;;;;;10.98;59.96;101456.06;2443593;28;47411;-88
2022/03/03 04:46:03;;;;;;;;;67.25;51.25;;;;;10.98;59.87;101458.69;2451227;28;45464;-83
2022/03/03 04:47:14;;;;;;;;;64.25;51.25;;;;;10.99;60.13;101468.28;2451551;27;46247;-83
2022/03/03 04:48:29;;;;;;;;;67.00;52.00;;;;;10.99;60.13;101456.91;2451613;27;44593;-83
2022/03/03 04:49:40;;;;;;;;;69.75;53.00;;;;;10.98;60.11;101456.06;2450170;28;45492;-82
2022/03/03 04:50:50;;;;;;;;;69.25;52.75;;;;;11.02;59.82;101462.09;2450816;27;45252;-85
2022/03/03 04:52:00;;;;;;;;;67.25;52.00;;;;;11.01;60.04;101461.22;2444101;27;45725;-85
2022/03/03 04:53:11;;;;;;;;;68.25;52.50;;;;;11.02;60.08;101454.19;2447609;28;45145;-85
2022/03/03 04:54:21;;;;;;;;;65.25;51.50;;;;;11.01;60.00;101457.75;2451504;27;45987;-85
2022/03/03 04:55:32;;;;;;;;;66.00;51.00;;;;;11.03;59.90;101451.56;2451571;27;45424;-83
2022/03/03 04:56:42;;;;;;;;;65.75;51.25;;;;;11.02;60.00;101452.44;2451503;27;46504;-84
2022/03/03 04:57:52;;;;;;;;;67.00;52.00;;;;;11.00;59.83;101454.25;2451608;27;44749;-84
2022/03/03 04:59:04;;;;;;;;;66.75;51.25;;;;;11.05;60.05;101448.00;2450781;28;46227;-84
2022/03/03 05:00:15;;;;;;;;;65.50;51.00;;;;;11.05;60.26;101446.25;2443099;28;45233;-84
2022/03/03 05:01:25;;;;;;;;;65.75;51.75;;;;;11.06;60.17;101449.75;2451066;28;46764;-88
2022/03/03 05:02:36;;;;;;;;;64.75;48.25;;;;;11.03;60.30;101438.41;2451288;28;44641;-88
2022/03/03 05:03:46;;;;;;;;;64.25;51.00;;;;;11.03;60.08;101441.03;2450050;28;47302;-88
2022/03/03 05:04:57;;;;;;;;;66.50;52.25;;;;;11.03;60.35;101446.28;2451064;28;44563;-88
2022/03/03 05:06:07;;;;;;;;;66.25;52.00;;;;;11.03;59.97;101443.66;2450534;28;47167;-84
2022/03/03 05:07:19;;;;;;;;;67.50;51.75;;;;;11.05;60.28;101443.63;2450953;28;45340;-84
2022/03/03 05:08:29;;;;;;;;;66.25;50.25;;;;;11.07;60.48;101452.34;2451186;27;45333;-85
2022/03/03 05:09:40;;;;;;;;;66.75;51.50;;;;;11.07;60.26;101448.84;2451655;28;44686;-84
2022/03/03 05:10:50;;;;;;;;;68.75;50.75;;;;;11.05;60.63;101450.63;2451047;27;46281;-84
2022/03/03 05:12:00;;;;;;;;;67.25;52.50;;;;;11.05;60.44;101448.00;2451598;27;45354;-84
2022/03/03 05:13:11;;;;;;;;;68.00;51.50;;;;;11.03;60.54;101445.44;2450872;27;45445;-84
2022/03/03 05:14:21;;;;;;;;;62.25;49.25;;;;;11.05;60.57;101450.63;2451485;27;45211;-85
2022/03/03 05:15:31;;;;;;;;;65.25;50.50;;;;;11.05;60.61;101448.00;2451218;27;46291;-86
2022/03/03 05:16:42;;;;;;;;;64.50;49.50;;;;;11.08;60.53;101450.56;2451483;27;44669;-86
2022/03/03 05:17:52;;;;;;;;;64.75;51.50;;;;;11.05;60.56;101451.50;2450628;28;47147;-87
2022/03/03 05:19:03;;;;;;;;;63.50;48.50;;;;;11.06;60.42;101444.50;2443009;28;45455;-85
2022/03/03 05:20:13;;;;;;;;;65.25;51.75;;;;;11.07;60.53;101454.09;2443474;28;47207;-87
2022/03/03 05:21:24;;;;;;;;;63.75;50.00;;;;;11.11;60.54;101455.78;2443644;28;44681;-84
2022/03/03 05:22:34;;;;;;;;;66.25;50.00;;;;;11.07;60.78;101440.94;2450687;28;46053;-84
2022/03/03 05:23:45;;;;;;;;;67.25;50.50;;;;;11.10;60.65;101446.13;2451123;27;45456;-86
2022/03/03 05:24:55;;;;;;;;;64.50;51.00;;;;;11.08;60.77;101442.69;2460453;27;48219;-87